Time;durP1;ratioP1;P1;durP2;ratioP2;P2;SDS_P1;SDS_P2;PMS_P1;PMS_P2;Temp;Humidity;BMP_temperature;BMP_pressure;BME280_temperature;BME280_humidity;BME280_pressure;Samples;Min_cycle;Max_cycle;Signal;HPM_P1;HPM_P2
2022/11/24 00:02:13;;;;;;;0.10;0.10;;;;;;;9.66;75.45;100223.84;5074161;28;20028;-78
2022/11/24 00:04:40;;;;;;;0.20;0.20;;;;;;;9.60;75.37;100233.72;5081725;28;20414;-78
2022/11/24 00:07:06;;;;;;;0.17;0.17;;;;;;;9.60;75.66;100236.34;5080222;28;20023;-77
2022/11/24 00:09:32;;;;;;;0.10;0.10;;;;;;;9.54;75.84;100255.88;5086883;28;20400;-77
2022/11/24 00:12:00;;;;;;;0.20;0.20;;;;;;;9.57;76.16;100234.66;5080009;28;20047;-77
2022/11/24 00:14:26;;;;;;;0.10;0.10;;;;;;;9.65;75.78;100243.25;5082308;28;20028;-77
2022/11/24 00:16:52;;;;;;;0.10;0.10;;;;;;;9.65;75.49;100237.97;5084919;28;20091;-77
2022/11/24 00:19:18;;;;;;;0.20;0.20;;;;;;;9.60;75.64;100245.16;5089116;28;20040;-77
2022/11/24 00:21:45;;;;;;;0.40;0.40;;;;;;;9.63;75.34;100234.50;5073223;28;20511;-77
2022/11/24 00:24:11;;;;;;;0.10;0.10;;;;;;;9.62;75.57;100238.06;5085453;28;20032;-77
2022/11/24 00:26:38;;;;;;;0.10;0.10;;;;;;;9.66;75.13;100234.41;5085281;28;20141;-77
2022/11/24 00:29:06;;;;;;;12.20;2.40;;;;;;;9.62;74.98;100232.75;5084326;28;20039;-77
2022/11/24 00:31:38;;;;;;;0.20;0.20;;;;;;;9.55;75.44;100247.03;5088282;28;20081;-77
2022/11/24 00:34:07;;;;;;;0.20;0.20;;;;;;;9.61;75.56;100256.59;5083418;28;20020;-77
2022/11/24 00:36:34;;;;;;;0.20;0.20;;;;;;;9.61;75.31;100246.00;5089620;28;20032;-78
2022/11/24 00:39:06;;;;;;;0.20;0.20;;;;;;;9.58;75.51;100246.97;5086478;28;20040;-78
2022/11/24 00:41:32;;;;;;;0.63;0.63;;;;;;;9.60;75.28;100249.59;5083889;28;20036;-77
2022/11/24 00:43:59;;;;;;;0.10;0.10;;;;;;;9.55;74.92;100254.97;5086124;28;20031;-77
2022/11/24 00:46:26;;;;;;;0.10;0.10;;;;;;;9.58;75.04;100262.81;5089765;28;20519;-78
2022/11/24 00:48:54;;;;;;;0.20;0.20;;;;;;;9.56;74.73;100269.94;5111211;28;20027;-77
2022/11/24 00:51:23;;;;;;;11.90;1.45;;;;;;;9.52;74.93;100270.91;5104077;28;20031;-78
2022/11/24 00:53:49;;;;;;;0.32;0.32;;;;;;;9.52;74.79;100274.44;5098046;28;20024;-77
2022/11/24 00:56:16;;;;;;;0.52;0.52;;;;;;;9.50;74.62;100270.09;5081573;28;20036;-77
2022/11/24 00:58:42;;;;;;;0.20;0.20;;;;;;;9.54;74.72;100272.63;5075263;28;20029;-77
2022/11/24 01:01:12;;;;;;;0.10;0.10;;;;;;;9.57;74.80;100279.63;5075488;28;20025;-78
2022/11/24 01:03:39;;;;;;;0.10;0.10;;;;;;;9.58;74.49;100272.53;5075870;28;20046;-77
2022/11/24 01:06:08;;;;;;;0.20;0.20;;;;;;;9.60;74.33;100274.25;5075939;28;20021;-78
2022/11/24 01:08:37;;;;;;;0.10;0.10;;;;;;;9.54;74.33;100282.34;5068862;28;20032;-78
2022/11/24 01:13:53;;;;;;;0.20;0.20;;;;;;;9.57;74.23;100271.69;5069963;28;20390;-77
2022/11/24 01:16:22;;;;;;;1.37;1.37;;;;;;;9.58;74.00;100277.84;5061801;28;20033;-77
2022/11/24 01:18:49;;;;;;;0.10;0.10;;;;;;;9.56;73.90;100285.81;5058849;28;20397;-77
2022/11/24 01:21:16;;;;;;;0.17;0.17;;;;;;;9.52;74.30;100292.06;5046827;28;20064;-76
2022/11/24 01:23:43;;;;;;;0.20;0.20;;;;;;;9.62;74.25;100296.25;5040754;28;20430;-75
2022/11/24 01:26:12;;;;;;;0.20;0.20;;;;;;;9.66;73.90;100297.91;5051112;28;20164;-77
2022/11/24 01:28:38;;;;;;;0.20;0.20;;;;;;;9.67;73.96;100294.34;5048517;28;20061;-76
2022/11/24 01:31:06;;;;;;;0.10;0.10;;;;;;;9.76;73.72;100302.94;5047443;28;20025;-77
2022/11/24 01:33:33;;;;;;;0.30;0.30;;;;;;;9.80;73.84;100289.59;5049432;28;20025;-77
2022/11/24 01:36:00;;;;;;;0.10;0.10;;;;;;;9.75;73.75;100295.94;5049360;28;20030;-77
2022/11/24 01:38:27;;;;;;;0.13;0.13;;;;;;;9.81;73.80;100301.06;5050919;28;20055;-76
2022/11/24 01:41:14;;;;;;;0.10;0.10;;;;;;;9.82;74.02;100297.50;5052587;28;20047;-77
2022/11/24 01:43:42;;;;;;;0.00;0.00;;;;;;;9.81;74.08;100299.28;5044136;28;20055;-77
2022/11/24 01:49:20;;;;;;;0.30;0.30;;;;;;;9.80;73.83;100309.91;5067194;28;20407;-77
2022/11/24 01:51:54;;;;;;;0.15;0.15;;;;;;;9.82;74.00;100310.72;5024473;28;20099;-77
2022/11/24 01:54:28;;;;;;;0.20;0.20;;;;;;;9.81;73.94;100314.31;5032000;28;20063;-77
2022/11/24 01:56:59;;;;;;;0.10;0.10;;;;;;;9.78;73.77;100319.66;5038121;28;20047;-77
2022/11/24 01:59:26;;;;;;;0.10;0.10;;;;;;;9.76;73.96;100324.09;5037900;28;20043;-77
2022/11/24 02:01:53;;;;;;;0.20;0.20;;;;;;;9.80;74.27;100325.78;5039913;28;20116;-77
2022/11/24 02:04:25;;;;;;;0.10;0.10;;;;;;;9.90;73.67;100327.28;5048666;28;20029;-77
2022/11/24 02:06:53;;;;;;;0.40;0.40;;;;;;;9.85;73.52;100326.53;5053519;28;20033;-76
2022/11/24 02:09:25;;;;;;;0.10;0.10;;;;;;;9.94;73.54;100334.22;5041602;28;20038;-77
2022/11/24 02:11:53;;;;;;;0.20;0.20;;;;;;;9.92;73.16;100328.13;5051352;28;20075;-77
2022/11/24 02:14:22;;;;;;;0.10;0.10;;;;;;;9.98;73.34;100325.31;5050878;28;20029;-77
2022/11/24 02:16:51;;;;;;;0.10;0.10;;;;;;;9.98;73.22;100327.97;5046593;28;20052;-78
2022/11/24 02:22:31;;;;;;;0.13;0.13;;;;;;;10.03;72.95;100333.13;5110982;27;20396;-77
2022/11/24 02:25:10;;;;;;;0.10;0.10;;;;;;;10.01;72.95;100341.09;5098487;28;20363;-77
2022/11/24 02:27:37;;;;;;;0.30;0.30;;;;;;;10.00;72.76;100349.09;5111208;28;20399;-77
2022/11/24 02:30:03;;;;;;;0.10;0.10;;;;;;;10.02;73.05;100337.56;5112412;28;20035;-77
2022/11/24 02:32:32;;;;;;;0.25;0.25;;;;;;;10.00;72.65;100334.06;5108004;28;20024;-76
2022/11/24 02:35:03;;;;;;;0.20;0.20;;;;;;;9.93;72.79;100337.81;5092783;28;20093;-77
2022/11/24 02:37:29;;;;;;;0.20;0.20;;;;;;;9.95;72.63;100341.25;5091158;28;20034;-77
2022/11/24 02:39:56;;;;;;;0.20;0.20;;;;;;;10.00;72.92;100351.75;5091794;28;20074;-77
2022/11/24 02:42:23;;;;;;;0.43;0.43;;;;;;;9.96;72.93;100336.84;5094278;28;20522;-77
2022/11/24 02:44:54;;;;;;;0.30;0.30;;;;;;;9.93;73.30;100342.22;5089382;28;20466;-76
2022/11/24 02:47:20;;;;;;;0.10;0.10;;;;;;;9.96;72.90;100350.94;5088688;28;20994;-77
2022/11/24 02:49:46;;;;;;;0.17;0.17;;;;;;;9.95;72.81;100351.84;5090661;28;20081;-77
2022/11/24 02:52:13;;;;;;;0.10;0.10;;;;;;;9.91;72.82;100349.34;5088954;28;20064;-77
2022/11/24 02:54:39;;;;;;;0.30;0.30;;;;;;;9.78;72.90;100338.19;5085264;28;20028;-77
2022/11/24 02:57:06;;;;;;;0.20;0.20;;;;;;;9.79;73.09;100345.22;5090475;28;20029;-77
2022/11/24 02:59:32;;;;;;;0.17;0.17;;;;;;;9.83;72.92;100331.00;5087332;28;20542;-76
2022/11/24 03:01:58;;;;;;;0.38;0.38;;;;;;;9.71;72.52;100334.81;5087518;28;20071;-76
2022/11/24 03:04:24;;;;;;;0.10;0.10;;;;;;;9.76;72.28;100350.56;5094329;28;20077;-77
2022/11/24 03:06:51;;;;;;;0.10;0.10;;;;;;;9.74;72.41;100347.97;5085598;28;20032;-77
2022/11/24 03:09:17;;;;;;;0.10;0.10;;;;;;;9.75;72.94;100360.28;5082558;28;20479;-78
2022/11/24 03:11:43;;;;;;;0.52;0.52;;;;;;;9.71;72.72;100363.94;5091003;28;20027;-77
2022/11/24 03:14:09;;;;;;;0.60;0.60;;;;;;;9.74;72.80;100373.56;5088035;28;20056;-78
2022/11/24 03:16:36;;;;;;;0.15;0.15;;;;;;;9.74;72.87;100369.13;5087888;28;20076;-77
2022/11/24 03:19:03;;;;;;;0.10;0.10;;;;;;;9.73;72.83;100372.66;5088832;28;20099;-77
2022/11/24 03:21:29;;;;;;;0.10;0.10;;;;;;;9.77;72.16;100368.19;5110765;28;20043;-76
2022/11/24 03:23:55;;;;;;;0.40;0.40;;;;;;;9.77;72.14;100357.59;5107615;28;20028;-78
2022/11/24 03:26:24;;;;;;;0.10;0.10;;;;;;;9.79;72.22;100363.72;5091808;28;20039;-77
2022/11/24 03:28:54;;;;;;;0.10;0.10;;;;;;;9.85;72.05;100367.09;5083810;28;20031;-77
2022/11/24 03:31:21;;;;;;;0.10;0.10;;;;;;;9.79;72.41;100369.88;5082583;28;20050;-77
2022/11/24 03:33:47;;;;;;;0.10;0.10;;;;;;;9.91;72.13;100371.38;5078752;28;20035;-77
2022/11/24 03:36:13;;;;;;;0.10;0.10;;;;;;;9.86;72.42;100371.47;5078281;28;20039;-77
2022/11/24 03:38:40;;;;;;;0.10;0.10;;;;;;;9.93;72.43;100380.16;5076442;28;20067;-77
2022/11/24 03:41:06;;;;;;;0.20;0.20;;;;;;;9.97;72.37;100386.22;5074955;28;20035;-77
2022/11/24 03:43:32;;;;;;;0.17;0.17;;;;;;;10.02;71.97;100387.00;5080209;28;20083;-77
2022/11/24 03:45:58;;;;;;;0.20;0.20;;;;;;;9.98;72.25;100388.84;5073296;28;20120;-77
2022/11/24 03:48:25;;;;;;;1.30;1.27;;;;;;;10.01;72.31;100391.41;5065638;28;20044;-77
2022/11/24 03:50:59;;;;;;;1.05;1.05;;;;;;;9.96;72.19;100393.28;5068544;28;20443;-77
2022/11/24 03:53:28;;;;;;;0.10;0.10;;;;;;;10.02;72.25;100395.78;5072501;28;20085;-77
2022/11/24 03:55:54;;;;;;;0.10;0.10;;;;;;;10.01;72.25;100403.78;5074413;28;20032;-77
2022/11/24 03:58:21;;;;;;;0.10;0.10;;;;;;;10.11;72.10;100399.13;5072392;28;20052;-77
2022/11/24 04:00:49;;;;;;;0.10;0.10;;;;;;;10.02;72.18;100406.38;5074872;28;20399;-77
2022/11/24 04:03:15;;;;;;;0.20;0.20;;;;;;;10.10;72.21;100415.91;5073147;28;20330;-77
2022/11/24 04:05:42;;;;;;;0.10;0.10;;;;;;;10.09;72.36;100417.66;5068509;28;20051;-77
2022/11/24 04:08:09;;;;;;;0.17;0.17;;;;;;;10.12;72.32;100417.59;5074738;28;20029;-76
2022/11/24 04:10:37;;;;;;;0.10;0.10;;;;;;;10.12;72.33;100422.00;5076172;28;20099;-77
2022/11/24 04:13:09;;;;;;;0.40;0.40;;;;;;;10.14;72.41;100425.50;5067212;28;20036;-77
2022/11/24 04:15:39;;;;;;;0.20;0.20;;;;;;;10.20;72.32;100430.66;5070723;28;20032;-78
2022/11/24 04:18:05;;;;;;;0.10;0.10;;;;;;;10.11;72.40;100437.03;5076743;28;20594;-78
2022/11/24 04:20:32;;;;;;;0.25;0.25;;;;;;;10.17;72.25;100436.03;5074286;28;20115;-78
2022/11/24 04:22:58;;;;;;;0.10;0.10;;;;;;;10.20;72.25;100454.47;5074718;28;20025;-78
2022/11/24 04:25:24;;;;;;;0.10;0.10;;;;;;;10.10;72.45;100456.47;5068303;28;20048;-77
2022/11/24 04:27:52;;;;;;;0.20;0.20;;;;;;;10.04;72.50;100457.50;5073183;28;20021;-77
2022/11/24 04:30:19;;;;;;;0.10;0.10;;;;;;;9.98;72.51;100462.94;5077067;28;20427;-77
2022/11/24 04:32:46;;;;;;;0.20;0.20;;;;;;;9.99;72.54;100463.81;5079320;28;20028;-77
2022/11/24 04:35:12;;;;;;;0.10;0.10;;;;;;;10.02;72.28;100469.03;5076963;28;20059;-78
2022/11/24 04:37:39;;;;;;;0.10;0.10;;;;;;;9.92;72.34;100471.03;5080210;28;20023;-77
2022/11/24 04:40:06;;;;;;;0.20;0.20;;;;;;;9.82;72.55;100488.00;5096695;28;20034;-77
2022/11/24 04:42:33;;;;;;;0.20;0.20;;;;;;;9.71;72.99;100491.75;5100229;28;20039;-76
2022/11/24 04:44:59;;;;;;;0.20;0.20;;;;;;;9.69;73.00;100496.25;5083370;28;20050;-77
2022/11/24 04:47:26;;;;;;;1.33;1.33;;;;;;;9.67;72.94;100499.78;5076918;28;20048;-77
2022/11/24 04:49:53;;;;;;;2.75;2.55;;;;;;;9.63;72.62;100504.31;5079225;28;20028;-77
2022/11/24 04:52:21;;;;;;;0.10;0.10;;;;;;;9.47;72.66;100524.03;5077610;28;20114;-78
2022/11/24 04:54:48;;;;;;;0.20;0.20;;;;;;;9.42;72.76;100515.31;5070111;28;20039;-77
2022/11/24 04:57:22;;;;;;;0.13;0.13;;;;;;;9.43;72.76;100519.72;5081383;28;20135;-78
2022/11/24 04:59:50;;;;;;;0.10;0.10;;;;;;;9.28;72.79;100534.97;5071306;28;20479;-77
2022/11/24 05:02:17;;;;;;;0.20;0.20;;;;;;;9.28;73.03;100523.53;5075542;28;20061;-77
2022/11/24 05:04:43;;;;;;;0.10;0.10;;;;;;;9.22;72.70;100535.09;5072224;28;20403;-77
2022/11/24 05:07:12;;;;;;;0.10;0.10;;;;;;;9.17;72.66;100537.84;5077648;28;20123;-77
2022/11/24 05:10:33;;;;;;;0.10;0.10;;;;;;;9.17;72.75;100542.25;5069711;28;20515;-78
2022/11/24 05:12:29;;;;;;;2.05;1.15;;;;;;;9.15;72.80;100538.78;5074578;28;20495;-77
2022/11/24 05:14:57;;;;;;;0.70;0.70;;;;;;;9.13;72.60;100546.72;5076253;28;20047;-77
2022/11/24 05:17:23;;;;;;;0.13;0.13;;;;;;;9.14;72.70;100548.47;5074289;28;20040;-77
2022/11/24 05:19:49;;;;;;;0.10;0.10;;;;;;;9.09;72.78;100552.97;5075939;28;20124;-77
2022/11/24 05:22:15;;;;;;;0.10;0.10;;;;;;;9.11;72.62;100560.84;5079064;28;20071;-77
2022/11/24 05:24:41;;;;;;;0.10;0.10;;;;;;;9.02;73.37;100559.25;5078539;28;20495;-78
2022/11/24 05:27:07;;;;;;;0.20;0.20;;;;;;;8.99;73.02;100562.81;5076014;28;20045;-78
2022/11/24 05:29:33;;;;;;;0.10;0.10;;;;;;;9.00;73.79;100561.06;5073020;28;20040;-77
2022/11/24 05:31:59;;;;;;;0.10;0.10;;;;;;;9.01;73.70;100574.25;5073378;28;20039;-77
2022/11/24 05:34:25;;;;;;;0.20;0.20;;;;;;;8.98;74.26;100584.00;5075459;28;20028;-77
2022/11/24 05:36:52;;;;;;;0.10;0.10;;;;;;;9.01;74.31;100594.50;5071402;28;20060;-77
2022/11/24 05:39:19;;;;;;;0.10;0.10;;;;;;;9.03;74.24;100587.44;5071735;28;20021;-77
2022/11/24 05:41:45;;;;;;;0.10;0.10;;;;;;;9.10;73.30;100598.75;5076619;28;20486;-77
2022/11/24 05:44:11;;;;;;;0.10;0.10;;;;;;;9.05;74.00;100597.06;5067933;28;20032;-78
2022/11/24 05:46:37;;;;;;;0.10;0.10;;;;;;;9.05;74.56;100590.94;5074867;28;20609;-77
2022/11/24 05:49:03;;;;;;;0.10;0.10;;;;;;;9.07;74.88;100595.28;5075760;28;20039;-77
2022/11/24 05:51:29;;;;;;;0.10;0.10;;;;;;;9.11;74.23;100600.50;5074732;28;20028;-77
2022/11/24 05:53:55;;;;;;;0.10;0.10;;;;;;;9.14;74.44;100600.47;5092349;28;20032;-76
2022/11/24 05:56:21;;;;;;;0.10;0.10;;;;;;;9.08;75.37;100609.34;5092721;28;20441;-78
2022/11/24 05:58:47;;;;;;;0.20;0.20;;;;;;;9.12;75.31;100613.72;5073240;28;20048;-77
2022/11/24 06:01:13;;;;;;;0.10;0.10;;;;;;;9.18;75.22;100620.66;5069366;28;20368;-77
2022/11/24 06:03:40;;;;;;;0.13;0.13;;;;;;;9.14;75.84;100626.91;5070290;28;20488;-78
2022/11/24 06:06:06;;;;;;;0.13;0.13;;;;;;;9.23;74.67;100624.06;5072757;28;20036;-78
2022/11/24 06:08:33;;;;;;;0.10;0.10;;;;;;;9.25;74.62;100634.66;5077446;28;20098;-76
2022/11/24 06:11:31;;;;;;;0.20;0.20;;;;;;;9.28;75.41;100630.16;5075644;28;20033;-77
2022/11/24 06:13:47;;;;;;;0.10;0.10;;;;;;;9.32;74.87;100637.16;5076845;28;20114;-77
2022/11/24 06:16:14;;;;;;;0.10;0.10;;;;;;;9.26;75.49;100637.25;5065788;28;20093;-77
2022/11/24 06:18:40;;;;;;;0.10;0.10;;;;;;;9.32;75.32;100646.81;5074809;28;20102;-77
2022/11/24 06:21:06;;;;;;;0.20;0.20;;;;;;;9.36;74.81;100648.53;5078420;28;20029;-77
2022/11/24 06:23:33;;;;;;;0.28;0.28;;;;;;;9.30;75.39;100654.78;5084050;28;20062;-77
2022/11/24 06:26:00;;;;;;;0.20;0.20;;;;;;;9.35;75.17;100667.94;5067583;28;20547;-77
2022/11/24 06:28:26;;;;;;;0.20;0.20;;;;;;;9.33;74.58;100664.44;5053791;28;20488;-77
2022/11/24 06:30:53;;;;;;;0.20;0.20;;;;;;;9.38;74.79;100675.81;5062956;28;20036;-77
2022/11/24 06:33:19;;;;;;;0.20;0.20;;;;;;;9.37;75.03;100676.69;5065770;28;20123;-78
2022/11/24 06:35:45;;;;;;;0.10;0.10;;;;;;;9.37;74.93;100688.16;5063687;28;20086;-76
2022/11/24 06:38:11;;;;;;;0.20;0.20;;;;;;;9.35;74.66;100682.03;5063252;28;20099;-77
2022/11/24 06:40:37;;;;;;;0.10;0.10;;;;;;;9.38;74.78;100689.91;5065310;28;20547;-77
2022/11/24 06:43:03;;;;;;;0.30;0.30;;;;;;;9.36;74.90;100688.19;5068046;28;20071;-77
2022/11/24 06:45:29;;;;;;;0.10;0.10;;;;;;;9.33;75.15;100702.34;5071142;28;20028;-78
2022/11/24 06:47:55;;;;;;;0.10;0.10;;;;;;;9.37;74.60;100697.84;5066800;28;20416;-77
2022/11/24 06:50:22;;;;;;;0.10;0.10;;;;;;;9.29;75.40;100702.41;5069486;28;20080;-78
2022/11/24 06:52:48;;;;;;;0.20;0.20;;;;;;;9.32;74.93;100705.00;5073408;28;20032;-78
2022/11/24 06:55:14;;;;;;;0.30;0.30;;;;;;;9.37;74.76;100704.03;5069793;28;20040;-77
2022/11/24 06:57:40;;;;;;;0.20;0.20;;;;;;;9.35;75.03;100711.09;5063068;28;20074;-76
2022/11/24 07:00:07;;;;;;;0.15;0.15;;;;;;;9.36;75.23;100720.78;5067783;28;20082;-76
2022/11/24 07:02:33;;;;;;;0.10;0.10;;;;;;;9.33;74.53;100723.50;5076567;28;20052;-77
2022/11/24 07:04:59;;;;;;;0.10;0.10;;;;;;;9.39;74.91;100733.09;5068950;28;20047;-75
2022/11/24 07:07:25;;;;;;;0.20;0.20;;;;;;;9.41;74.66;100749.81;5073371;28;20046;-76
2022/11/24 07:09:51;;;;;;;0.10;0.10;;;;;;;9.41;75.02;100747.16;5093788;28;20095;-75
2022/11/24 07:12:17;;;;;;;0.20;0.20;;;;;;;9.41;74.64;100755.09;5094356;28;20040;-76
2022/11/24 07:14:43;;;;;;;0.10;0.10;;;;;;;9.43;74.61;100755.94;5085571;28;20037;-76
2022/11/24 07:17:09;;;;;;;0.20;0.20;;;;;;;9.45;74.69;100758.56;5078162;28;20055;-76
2022/11/24 07:19:35;;;;;;;0.10;0.10;;;;;;;9.45;74.89;100763.84;5076553;28;20032;-77
2022/11/24 07:22:01;;;;;;;0.20;0.20;;;;;;;9.45;75.02;100763.84;5081152;28;20036;-77
2022/11/24 07:24:27;;;;;;;0.10;0.10;;;;;;;9.45;75.15;100770.00;5085145;28;20048;-76
2022/11/24 07:26:54;;;;;;;0.20;0.20;;;;;;;9.45;75.22;100785.00;5080193;28;20079;-77
2022/11/24 07:29:20;;;;;;;0.90;0.90;;;;;;;9.48;74.82;100777.00;5075220;28;20067;-77
2022/11/24 07:31:46;;;;;;;0.20;0.20;;;;;;;9.44;75.15;100788.56;5077209;28;20464;-77
2022/11/24 07:34:13;;;;;;;0.10;0.10;;;;;;;9.48;75.25;100790.25;5073950;28;20024;-79
2022/11/24 07:36:39;;;;;;;0.10;0.10;;;;;;;9.48;75.27;100790.25;5069857;28;20025;-77
2022/11/24 07:39:06;;;;;;;0.10;0.10;;;;;;;9.50;75.47;100793.75;5078158;28;20492;-78
2022/11/24 07:41:32;;;;;;;0.10;0.10;;;;;;;9.46;75.32;100798.19;5072840;28;20131;-77
2022/11/24 07:43:58;;;;;;;0.10;0.10;;;;;;;9.48;75.74;100801.72;5070658;28;20041;-77
2022/11/24 07:46:24;;;;;;;0.30;0.30;;;;;;;9.47;75.56;100809.66;5075014;28;20107;-78
2022/11/24 07:48:50;;;;;;;0.10;0.10;;;;;;;9.48;75.53;100812.28;5076722;28;20027;-77
2022/11/24 07:51:16;;;;;;;0.10;0.10;;;;;;;9.52;75.89;100823.66;5077920;28;20483;-78
2022/11/24 07:53:44;;;;;;;0.13;0.13;;;;;;;9.54;75.54;100824.53;5076794;28;20032;-77
2022/11/24 07:56:10;;;;;;;0.10;0.10;;;;;;;9.55;75.70;100821.84;5076705;28;20037;-78
2022/11/24 07:58:37;;;;;;;0.10;0.10;;;;;;;9.55;75.66;100834.22;5076515;28;20510;-78
2022/11/24 08:01:12;;;;;;;0.10;0.10;;;;;;;9.58;75.54;100835.94;5075489;28;20488;-77
2022/11/24 08:03:39;;;;;;;0.17;0.17;;;;;;;9.52;75.46;100843.06;5064439;28;21278;-77
2022/11/24 08:06:06;;;;;;;0.28;0.28;;;;;;;9.47;75.94;100844.03;5075173;28;20028;-78
2022/11/24 08:08:32;;;;;;;0.30;0.30;;;;;;;9.44;75.45;100846.72;5077629;28;20158;-78
2022/11/24 08:11:02;;;;;;;0.10;0.10;;;;;;;9.38;75.45;100848.56;5079994;28;20036;-78
2022/11/24 08:13:29;;;;;;;0.10;0.10;;;;;;;9.33;75.92;100849.53;5078095;28;20040;-78
2022/11/24 08:15:55;;;;;;;0.10;0.10;;;;;;;9.32;75.65;100855.72;5095075;28;20028;-78
2022/11/24 08:18:23;;;;;;;0.10;0.10;;;;;;;9.28;75.55;100856.66;5094820;28;20059;-77
2022/11/24 08:20:49;;;;;;;0.10;0.10;;;;;;;9.26;75.96;100859.34;5074101;28;20020;-79
2022/11/24 08:23:29;;;;;;;0.10;0.10;;;;;;;9.23;76.05;100868.19;5071863;28;20032;-78
2022/11/24 08:25:59;;;;;;;0.10;0.10;;;;;;;9.21;75.69;100875.25;5090518;28;20036;-78
2022/11/24 08:28:25;;;;;;;0.20;0.20;;;;;;;9.21;75.37;100879.69;5110002;28;20028;-78
2022/11/24 08:30:51;;;;;;;0.20;0.20;;;;;;;9.24;75.80;100879.63;5095745;28;20097;-78
2022/11/24 08:33:17;;;;;;;0.10;0.10;;;;;;;9.23;76.43;100880.50;5076200;28;20044;-78
2022/11/24 08:35:43;;;;;;;0.20;0.20;;;;;;;9.27;76.25;100890.16;5069036;28;20029;-79
2022/11/24 08:38:09;;;;;;;0.20;0.20;;;;;;;9.26;76.56;100890.16;5074098;28;20035;-79
2022/11/24 08:40:35;;;;;;;0.10;0.10;;;;;;;9.28;75.97;100888.38;5073408;28;20020;-79
2022/11/24 08:43:01;;;;;;;0.17;0.17;;;;;;;9.24;76.36;100884.91;5071951;28;20032;-79
2022/11/24 08:45:27;;;;;;;1.08;1.08;;;;;;;9.29;76.22;100888.34;5073605;28;20028;-78
2022/11/24 08:47:55;;;;;;;0.10;0.10;;;;;;;9.30;76.43;100890.09;5072388;28;20028;-79
2022/11/24 08:50:23;;;;;;;0.20;0.20;;;;;;;9.30;76.48;100895.41;5071200;28;20024;-80
2022/11/24 08:52:52;;;;;;;0.10;0.10;;;;;;;9.33;76.88;100891.84;5079313;28;20515;-77
2022/11/24 08:55:18;;;;;;;0.55;0.55;;;;;;;9.36;76.59;100902.38;5069294;28;20039;-78
2022/11/24 08:57:44;;;;;;;0.10;0.10;;;;;;;9.41;76.53;100899.66;5065876;28;20028;-77
2022/11/24 09:00:12;;;;;;;0.10;0.10;;;;;;;9.49;76.87;100908.38;5062980;28;20044;-79
2022/11/24 09:02:38;;;;;;;0.10;0.10;;;;;;;9.52;76.60;100914.47;5075224;28;20032;-78
2022/11/24 09:05:04;;;;;;;0.10;0.10;;;;;;;9.58;76.29;100918.78;5071361;28;20040;-78
2022/11/24 09:07:30;;;;;;;0.10;0.10;;;;;;;9.62;76.17;100920.53;5075334;28;20484;-78
2022/11/24 09:09:56;;;;;;;0.28;0.28;;;;;;;9.67;76.60;100923.97;5071836;28;20063;-78
2022/11/24 09:12:22;;;;;;;0.10;0.10;;;;;;;9.69;76.42;100924.84;5081516;28;20507;-78
2022/11/24 09:14:48;;;;;;;0.10;0.10;;;;;;;9.71;76.42;100933.59;5077454;28;20036;-79
2022/11/24 09:17:14;;;;;;;0.10;0.10;;;;;;;9.76;76.27;100932.63;5068432;28;20025;-79
2022/11/24 09:19:40;;;;;;;0.10;0.10;;;;;;;9.84;76.00;100941.34;5067220;28;20447;-81
2022/11/24 09:22:06;;;;;;;0.10;0.10;;;;;;;9.91;76.17;100940.38;5073889;28;20081;-77
2022/11/24 09:24:32;;;;;;;0.20;0.20;;;;;;;10.00;76.20;100942.84;5073304;28;20044;-77
2022/11/24 09:26:59;;;;;;;0.10;0.10;;;;;;;10.06;75.99;100939.25;5069272;28;20041;-77
2022/11/24 09:29:25;;;;;;;0.10;0.10;;;;;;;10.12;76.00;100944.44;5061875;28;20033;-77
2022/11/24 09:31:51;;;;;;;0.20;0.20;;;;;;;10.19;75.76;100953.13;5063666;28;20013;-77
2022/11/24 09:34:17;;;;;;;0.10;0.10;;;;;;;10.24;75.85;100958.38;5057564;28;20033;-77
2022/11/24 09:36:43;;;;;;;0.20;0.20;;;;;;;10.27;75.72;100964.50;5057258;28;20484;-77
2022/11/24 09:39:10;;;;;;;0.15;0.15;;;;;;;10.27;75.73;100972.44;5065428;28;20557;-78
2022/11/24 09:42:03;;;;;;;4.80;2.60;;;;;;;10.41;75.17;100974.88;5069362;28;20024;-77
2022/11/24 09:44:48;;;;;;;0.10;0.10;;;;;;;10.37;75.54;100967.91;5088556;28;20021;-76
2022/11/24 09:50:01;;;;;;;0.30;0.30;;;;;;;10.53;75.08;100981.75;5094060;27;20411;-76
2022/11/24 09:53:07;;;;;;;0.10;0.10;;;;;;;10.61;74.97;100990.41;5089863;28;20556;-76
2022/11/24 09:55:51;;;;;;;0.10;0.10;;;;;;;10.67;75.01;100990.31;5088456;28;20375;-76
2022/11/24 09:58:29;;;;;;;0.20;0.20;;;;;;;10.62;74.60;100994.81;5084299;28;20462;-76
2022/11/24 10:00:56;;;;;;;0.10;0.10;;;;;;;10.61;74.08;101002.81;5091929;28;20081;-76
2022/11/24 10:03:42;;;;;;;0.10;0.10;;;;;;;10.71;74.08;101003.53;5091603;28;20056;-76
2022/11/24 10:06:37;;;;;;;0.20;0.20;;;;;;;10.76;74.13;101006.97;5096777;28;20017;-77
2022/11/24 10:17:42;;;;;;;0.10;0.10;;;;;;;10.83;72.93;101013.91;5088236;27;22093;-78
2022/11/24 10:23:24;;;;;;;0.10;0.10;;;;;;;10.83;72.76;101016.56;5050096;28;20139;-76
2022/11/24 10:25:59;;;;;;;0.10;0.10;;;;;;;10.78;73.36;101026.34;5049384;28;20041;-77
2022/11/24 10:28:34;;;;;;;10.00;2.75;;;;;;;10.81;73.16;101028.94;5050221;28;20404;-77
2022/11/24 10:31:21;;;;;;;0.10;0.10;;;;;;;10.85;72.35;101027.97;5046675;28;20547;-77
2022/11/24 10:33:48;;;;;;;0.10;0.10;;;;;;;10.88;72.67;101021.75;5046072;28;20043;-77
2022/11/24 10:36:22;;;;;;;0.13;0.13;;;;;;;10.91;71.96;101027.88;5048989;28;20112;-77
2022/11/24 10:38:59;;;;;;;0.90;0.90;;;;;;;10.97;71.63;101033.06;5047192;28;20120;-77
2022/11/24 10:41:49;;;;;;;0.10;0.10;;;;;;;11.11;71.97;101023.97;5045790;28;20060;-77
2022/11/24 10:44:15;;;;;;;0.10;0.10;;;;;;;11.11;72.49;101024.84;5050130;28;20045;-77
2022/11/24 10:46:41;;;;;;;0.10;0.10;;;;;;;11.11;71.71;101029.28;5043996;28;20087;-77
2022/11/24 10:49:17;;;;;;;0.55;0.55;;;;;;;11.16;71.34;101023.00;5044651;28;20475;-78
2022/11/24 10:52:02;;;;;;;2.08;1.98;;;;;;;11.19;71.29;101034.44;5047734;28;20108;-77
2022/11/24 10:54:28;;;;;;;0.20;0.20;;;;;;;11.16;70.84;101043.31;5044896;28;20029;-77
2022/11/24 10:56:54;;;;;;;0.20;0.20;;;;;;;11.27;70.99;101035.16;5043050;28;20033;-77
2022/11/24 10:59:33;;;;;;;0.90;0.90;;;;;;;11.36;71.54;101037.63;5056218;28;20029;-77
2022/11/24 11:01:59;;;;;;;0.10;0.10;;;;;;;11.35;70.63;101037.66;5056319;28;20061;-76
2022/11/24 11:04:32;;;;;;;0.82;0.82;;;;;;;11.46;70.60;101036.53;5046227;28;20053;-76
2022/11/24 11:07:18;;;;;;;;;;;;;;;11.60;70.28;101044.22;5045940;28;20035;-76
2022/11/24 11:09:45;;;;;;;0.20;0.20;;;;;;;11.58;70.79;101035.41;5038566;28;19975;-76
2022/11/24 11:14:56;;;;;;;0.10;0.10;;;;;;;11.61;69.95;101043.31;5065992;28;20421;-76
2022/11/24 11:17:35;;;;;;;0.20;0.20;;;;;;;11.75;69.58;101039.47;5047491;28;20033;-77
2022/11/24 11:20:16;;;;;;;3.97;1.88;;;;;;;11.78;70.65;101036.75;5043051;28;20382;-75
2022/11/24 11:22:45;;;;;;;10.13;2.63;;;;;;;11.82;70.16;101033.13;5038600;28;20036;-76
2022/11/24 11:27:48;;;;;;;1.05;0.98;;;;;;;11.83;69.35;101040.19;5085961;27;1875827;-75
2022/11/24 11:32:59;;;;;;;0.10;0.10;;;;;;;11.87;68.97;101036.53;5085515;27;20352;-74
2022/11/24 11:35:27;;;;;;;0.10;0.10;;;;;;;11.91;68.60;101032.94;5070715;28;20036;-76
2022/11/24 11:37:57;;;;;;;0.10;0.10;;;;;;;12.02;69.05;101034.50;5071975;28;20431;-76
2022/11/24 11:40:28;;;;;;;0.10;0.10;;;;;;;12.05;68.64;101039.72;5071157;28;20025;-76
2022/11/24 11:43:20;;;;;;;0.13;0.13;;;;;;;12.21;69.12;101041.13;5069929;28;20032;-75
2022/11/24 11:45:58;;;;;;;0.45;0.45;;;;;;;12.22;68.86;101037.53;5068709;28;20028;-75
2022/11/24 11:48:31;;;;;;;0.30;0.30;;;;;;;12.26;68.73;101041.91;5070998;28;20041;-75
2022/11/24 11:51:01;;;;;;;;;;;;;;;12.34;68.19;101040.84;5086649;28;20506;-76
2022/11/24 11:54:07;;;;;;;1.00;1.00;;;;;;;12.40;68.83;101045.97;5086151;28;19908;-76
2022/11/24 11:56:42;;;;;;;1.98;1.20;;;;;;;12.36;67.68;101045.22;5084720;28;20032;-76
2022/11/24 12:05:33;;;;;;;0.30;0.30;;;;;;;12.50;67.34;101047.53;5057415;28;20392;-75
2022/11/24 12:08:19;;;;;;;;;;;;;;;12.61;66.60;101050.78;5041875;28;20060;-76
2022/11/24 12:10:57;;;;;;;0.13;0.13;;;;;;;12.61;67.26;101056.09;5027831;28;19963;-76
2022/11/24 12:13:53;;;;;;;0.10;0.10;;;;;;;12.66;66.27;101053.34;5027730;28;20468;-76
2022/11/24 12:16:38;;;;;;;0.40;0.40;;;;;;;12.69;66.82;101041.75;5046514;28;20038;-75
2022/11/24 12:22:21;;;;;;;0.20;0.20;;;;;;;12.74;65.93;101050.47;5056664;28;20411;-76